Time;durP1;ratioP1;P1;durP2;ratioP2;P2;SDS_P1;SDS_P2;PMS_P1;PMS_P2;Temp;Humidity;BMP_temperature;BMP_pressure;BME280_temperature;BME280_humidity;BME280_pressure;Samples;Min_cycle;Max_cycle;Signal;HPM_P1;HPM_P2
2022/08/09 00:00:46;;;;;;;1.35;1.25;;;;;;;;;;5041202;28;20168;-86
2022/08/09 00:03:12;;;;;;;2.40;1.70;;;;;;;;;;5039378;28;20025;-81
2022/08/09 00:05:37;;;;;;;1.55;1.05;;;;;;;;;;5018440;28;20017;-81
2022/08/09 00:08:03;;;;;;;3.28;1.35;;;;;;;;;;5024371;28;20028;-83
2022/08/09 00:10:30;;;;;;;3.17;1.17;;;;;;;;;;5027944;28;20028;-82
2022/08/09 00:12:55;;;;;;;1.42;1.33;;;;;;;;;;5063290;28;20495;-82
2022/08/09 00:15:21;;;;;;;1.42;1.30;;;;;;;;;;5038265;28;20112;-83
2022/08/09 00:17:46;;;;;;;1.42;1.33;;;;;;;;;;5055415;28;20029;-83
2022/08/09 00:20:11;;;;;;;3.10;1.20;;;;;;;;;;5049304;28;20031;-81
2022/08/09 00:22:37;;;;;;;1.38;1.08;;;;;;;;;;5037652;28;20025;-81
2022/08/09 00:25:02;;;;;;;1.33;1.10;;;;;;;;;;5022395;28;20022;-84
2022/08/09 00:27:28;;;;;;;1.35;1.13;;;;;;;;;;5040049;28;20025;-82
2022/08/09 00:29:53;;;;;;;2.20;1.42;;;;;;;;;;5022396;28;20029;-83
2022/08/09 00:32:20;;;;;;;1.10;1.00;;;;;;;;;;5022947;28;20439;-84
2022/08/09 00:34:45;;;;;;;1.58;1.23;;;;;;;;;;5041794;28;20112;-83
2022/08/09 00:37:11;;;;;;;1.73;1.52;;;;;;;;;;5042674;28;20045;-83
2022/08/09 00:39:36;;;;;;;1.17;1.08;;;;;;;;;;5022887;28;20021;-83
2022/08/09 00:42:02;;;;;;;1.30;1.20;;;;;;;;;;5022648;28;20033;-82
2022/08/09 00:44:27;;;;;;;2.13;1.30;;;;;;;;;;5034042;28;20480;-82
2022/08/09 00:46:54;;;;;;;1.27;0.95;;;;;;;;;;5047696;28;20351;-81
2022/08/09 00:49:20;;;;;;;1.40;1.30;;;;;;;;;;5035669;28;20026;-82
2022/08/09 00:51:45;;;;;;;1.55;1.13;;;;;;;;;;5036764;28;20026;-81
2022/08/09 00:54:10;;;;;;;1.95;1.30;;;;;;;;;;5035461;28;20033;-81
2022/08/09 00:56:36;;;;;;;2.67;1.15;;;;;;;;;;5035429;28;20029;-82
2022/08/09 00:59:01;;;;;;;5.40;1.40;;;;;;;;;;5034664;28;20533;-81
2022/08/09 01:01:33;;;;;;;1.75;1.38;;;;;;;;;;5034322;28;20491;-81
2022/08/09 01:04:18;;;;;;;;;;;;;;;;;;5026061;28;20028;-81
2022/08/09 01:07:04;;;;;;;1.90;1.05;;;;;;;;;;5034286;28;19964;-81
2022/08/09 01:09:52;;;;;;;4.15;1.60;;;;;;;;;;5034912;28;20036;-81
2022/08/09 01:12:32;;;;;;;1.50;1.20;;;;;;;;;;5037885;28;20380;-81
2022/08/09 01:15:12;;;;;;;5.32;1.45;;;;;;;;;;5015073;28;20064;-81
2022/08/09 01:18:02;;;;;;;1.38;1.30;;;;;;;;;;5015376;28;20050;-81
2022/08/09 01:20:46;;;;;;;2.65;1.60;;;;;;;;;;5030454;28;20032;-81
2022/08/09 01:23:22;;;;;;;4.07;1.20;;;;;;;;;;5015560;28;20026;-81
2022/08/09 01:26:01;;;;;;;1.48;1.30;;;;;;;;;;5015339;28;20022;-81
2022/08/09 01:28:27;;;;;;;1.63;1.40;;;;;;;;;;5017577;28;20021;-81
2022/08/09 01:30:56;;;;;;;2.25;1.60;;;;;;;;;;5034744;28;20079;-81
2022/08/09 01:33:25;;;;;;;1.83;1.35;;;;;;;;;;5033049;28;20029;-81
2022/08/09 01:35:58;;;;;;;3.88;1.45;;;;;;;;;;5033944;28;20017;-81
2022/08/09 01:38:28;;;;;;;3.67;1.40;;;;;;;;;;5024727;28;20036;-82
2022/08/09 01:41:08;;;;;;;2.10;1.30;;;;;;;;;;5017183;28;20116;-80
2022/08/09 01:43:44;;;;;;;3.13;1.40;;;;;;;;;;5034818;28;20030;-83
2022/08/09 01:46:11;;;;;;;1.63;1.33;;;;;;;;;;5017201;28;20059;-81
2022/08/09 01:48:37;;;;;;;2.13;1.60;;;;;;;;;;5034399;28;20197;-81
2022/08/09 01:51:04;;;;;;;2.08;1.33;;;;;;;;;;5033961;28;20033;-83
2022/08/09 01:53:31;;;;;;;4.90;1.35;;;;;;;;;;5034653;28;20022;-82
2022/08/09 01:55:58;;;;;;;1.33;1.23;;;;;;;;;;5033357;28;20017;-82
2022/08/09 01:58:25;;;;;;;1.90;1.40;;;;;;;;;;5034641;28;20132;-81
2022/08/09 02:00:52;;;;;;;4.90;1.55;;;;;;;;;;5033257;28;20529;-81
2022/08/09 02:03:19;;;;;;;3.88;1.50;;;;;;;;;;5034019;28;20029;-80
2022/08/09 02:05:47;;;;;;;1.48;1.35;;;;;;;;;;5034430;28;20529;-81
2022/08/09 02:08:16;;;;;;;1.75;1.60;;;;;;;;;;5031869;28;20022;-81
2022/08/09 02:10:45;;;;;;;1.70;1.60;;;;;;;;;;5035344;28;20033;-81
2022/08/09 02:13:13;;;;;;;2.42;1.45;;;;;;;;;;5054345;28;20103;-81
2022/08/09 02:15:42;;;;;;;3.97;1.45;;;;;;;;;;5054666;28;20055;-81
2022/08/09 02:18:09;;;;;;;2.00;1.60;;;;;;;;;;5035951;28;20272;-81
2022/08/09 02:20:38;;;;;;;1.77;1.60;;;;;;;;;;5064309;28;20088;-81
2022/08/09 02:23:08;;;;;;;1.42;1.33;;;;;;;;;;5067313;28;20431;-81
2022/08/09 02:25:38;;;;;;;3.60;1.60;;;;;;;;;;5059107;28;20036;-81
2022/08/09 02:28:11;;;;;;;2.00;1.42;;;;;;;;;;5057742;28;20021;-81
2022/08/09 02:30:42;;;;;;;2.03;1.48;;;;;;;;;;5018375;28;20051;-81
2022/08/09 02:33:12;;;;;;;3.75;1.58;;;;;;;;;;5020384;28;20043;-81
2022/08/09 02:35:40;;;;;;;1.60;1.50;;;;;;;;;;5038700;28;20495;-81
2022/08/09 02:38:07;;;;;;;2.05;1.40;;;;;;;;;;5047302;28;20048;-81
2022/08/09 02:40:34;;;;;;;3.55;1.50;;;;;;;;;;5038706;28;20041;-81
2022/08/09 02:43:02;;;;;;;2.05;1.65;;;;;;;;;;5038139;28;20104;-81
2022/08/09 02:45:35;;;;;;;3.15;1.30;;;;;;;;;;5038314;28;20040;-82
2022/08/09 02:48:05;;;;;;;2.10;1.50;;;;;;;;;;5037555;28;20034;-81
2022/08/09 02:50:35;;;;;;;1.50;1.40;;;;;;;;;;5038238;28;20531;-81
2022/08/09 02:53:06;;;;;;;3.80;1.60;;;;;;;;;;5019506;28;20029;-81
2022/08/09 02:55:33;;;;;;;5.38;1.42;;;;;;;;;;5038512;28;20017;-81
2022/08/09 02:58:01;;;;;;;1.38;1.27;;;;;;;;;;5037132;28;20495;-81
2022/08/09 03:00:27;;;;;;;3.70;1.63;;;;;;;;;;5037827;28;20369;-81
2022/08/09 03:02:54;;;;;;;1.52;1.38;;;;;;;;;;5019612;28;20025;-81
2022/08/09 03:05:21;;;;;;;2.95;1.63;;;;;;;;;;5037594;28;20221;-82
2022/08/09 03:07:49;;;;;;;2.30;1.70;;;;;;;;;;5036638;28;20030;-81
2022/08/09 03:10:15;;;;;;;2.92;1.50;;;;;;;;;;5038498;28;20085;-81
2022/08/09 03:12:42;;;;;;;10.90;2.10;;;;;;;;;;5054571;28;20383;-81
2022/08/09 03:15:09;;;;;;;4.45;1.77;;;;;;;;;;5057642;28;20025;-81
2022/08/09 03:17:35;;;;;;;2.15;1.60;;;;;;;;;;5039561;28;20100;-81
2022/08/09 03:20:02;;;;;;;5.13;1.50;;;;;;;;;;5057421;28;20055;-81
2022/08/09 03:22:29;;;;;;;2.50;1.88;;;;;;;;;;5057514;28;20029;-81
2022/08/09 03:24:55;;;;;;;2.40;1.73;;;;;;;;;;5057867;28;20029;-81
2022/08/09 03:27:22;;;;;;;3.08;1.58;;;;;;;;;;5043831;28;20383;-81
2022/08/09 03:29:52;;;;;;;2.67;1.20;;;;;;;;;;5054079;28;20020;-81
2022/08/09 03:32:18;;;;;;;2.65;1.70;;;;;;;;;;5057495;28;20022;-81
2022/08/09 03:34:44;;;;;;;2.65;1.65;;;;;;;;;;5057378;28;20017;-81
2022/08/09 03:37:09;;;;;;;1.58;1.48;;;;;;;;;;5040058;28;20016;-80
2022/08/09 03:39:35;;;;;;;1.75;1.38;;;;;;;;;;5057607;28;20029;-82
2022/08/09 03:42:00;;;;;;;1.83;1.65;;;;;;;;;;5057233;28;20085;-81
2022/08/09 03:44:28;;;;;;;2.65;1.70;;;;;;;;;;5041380;28;20127;-81
2022/08/09 03:46:54;;;;;;;6.25;1.98;;;;;;;;;;5058044;28;20040;-80
2022/08/09 03:49:21;;;;;;;6.10;1.70;;;;;;;;;;5040698;28;20018;-81
2022/08/09 03:51:50;;;;;;;2.97;1.42;;;;;;;;;;5041162;28;20021;-81
2022/08/09 03:54:17;;;;;;;1.38;1.30;;;;;;;;;;5058294;28;20076;-81
2022/08/09 03:56:43;;;;;;;1.77;1.67;;;;;;;;;;5057988;28;20023;-81
2022/08/09 03:59:09;;;;;;;1.40;1.30;;;;;;;;;;5040830;28;20086;-81
2022/08/09 04:01:37;;;;;;;4.97;1.80;;;;;;;;;;5049781;28;20101;-82
2022/08/09 04:04:04;;;;;;;4.25;1.88;;;;;;;;;;5038298;28;20494;-82
2022/08/09 04:06:29;;;;;;;2.70;1.50;;;;;;;;;;5036062;28;20026;-81
2022/08/09 04:08:55;;;;;;;1.63;1.52;;;;;;;;;;5020169;28;20089;-82
2022/08/09 04:11:20;;;;;;;3.50;1.70;;;;;;;;;;5026957;28;20021;-82
2022/08/09 04:13:45;;;;;;;1.80;1.52;;;;;;;;;;5039692;28;20029;-81
2022/08/09 04:16:11;;;;;;;3.83;1.60;;;;;;;;;;5044070;28;20017;-82
2022/08/09 04:18:36;;;;;;;4.65;1.75;;;;;;;;;;5036618;28;20400;-82
2022/08/09 04:21:02;;;;;;;2.42;1.90;;;;;;;;;;5036259;28;20017;-82
2022/08/09 04:23:27;;;;;;;3.60;1.88;;;;;;;;;;5019911;28;20112;-82
2022/08/09 04:25:53;;;;;;;6.75;1.65;;;;;;;;;;5037227;28;20036;-82
2022/08/09 04:28:20;;;;;;;1.70;1.60;;;;;;;;;;5037372;28;20282;-82
2022/08/09 04:30:46;;;;;;;2.83;1.80;;;;;;;;;;5036457;28;20021;-81
2022/08/09 04:33:11;;;;;;;3.05;1.88;;;;;;;;;;5036139;28;20065;-82
2022/08/09 04:35:39;;;;;;;2.88;1.90;;;;;;;;;;5036622;28;20026;-82
2022/08/09 04:38:05;;;;;;;2.85;1.80;;;;;;;;;;5036037;28;20037;-82
2022/08/09 04:40:47;;;;;;;4.00;1.80;;;;;;;;;;5019369;28;20072;-82
2022/08/09 04:43:13;;;;;;;3.35;1.67;;;;;;;;;;5036877;28;20071;-81
2022/08/09 04:45:40;;;;;;;1.70;1.60;;;;;;;;;;5038279;28;20021;-81
2022/08/09 04:48:05;;;;;;;7.38;1.60;;;;;;;;;;5055802;28;20092;-82
2022/08/09 04:50:31;;;;;;;2.22;1.50;;;;;;;;;;5060324;28;20044;-82
2022/08/09 04:52:56;;;;;;;2.83;1.65;;;;;;;;;;5066041;28;20502;-83
2022/08/09 04:55:22;;;;;;;4.47;1.75;;;;;;;;;;5065810;28;20017;-83
2022/08/09 04:57:47;;;;;;;13.77;2.53;;;;;;;;;;5064998;28;20029;-82
2022/08/09 05:00:13;;;;;;;18.23;2.42;;;;;;;;;;5049570;28;20017;-82
2022/08/09 05:02:40;;;;;;;10.95;2.10;;;;;;;;;;5044382;28;20036;-82
2022/08/09 05:05:06;;;;;;;9.45;2.22;;;;;;;;;;5029175;28;20021;-82
2022/08/09 05:07:31;;;;;;;12.95;2.53;;;;;;;;;;5027697;28;20045;-83
2022/08/09 05:09:57;;;;;;;8.38;2.70;;;;;;;;;;5045768;28;20061;-82
2022/08/09 05:12:22;;;;;;;4.32;2.88;;;;;;;;;;5060585;28;20036;-83
2022/08/09 05:14:47;;;;;;;9.77;2.30;;;;;;;;;;5059552;28;20021;-83
2022/08/09 05:17:13;;;;;;;9.10;3.03;;;;;;;;;;5044220;28;20029;-83
2022/08/09 05:19:38;;;;;;;9.90;2.65;;;;;;;;;;5044736;28;20029;-82
2022/08/09 05:22:03;;;;;;;7.25;2.22;;;;;;;;;;5044756;28;20209;-82
2022/08/09 05:24:29;;;;;;;8.18;2.70;;;;;;;;;;5045071;28;20395;-83
2022/08/09 05:26:54;;;;;;;10.18;2.45;;;;;;;;;;5043410;28;20017;-83
2022/08/09 05:29:20;;;;;;;6.38;2.63;;;;;;;;;;5044202;28;20029;-83
2022/08/09 05:31:46;;;;;;;6.90;2.63;;;;;;;;;;5044258;28;20025;-83
2022/08/09 05:34:13;;;;;;;7.53;2.40;;;;;;;;;;5043999;28;20028;-84
2022/08/09 05:36:38;;;;;;;5.40;2.22;;;;;;;;;;5044188;28;20029;-84
2022/08/09 05:39:03;;;;;;;11.57;2.63;;;;;;;;;;5026092;28;20028;-84
2022/08/09 05:41:29;;;;;;;2.33;1.75;;;;;;;;;;5043997;28;20100;-83
2022/08/09 05:43:54;;;;;;;8.18;2.45;;;;;;;;;;5043829;28;20037;-84
2022/08/09 05:46:19;;;;;;;3.25;2.22;;;;;;;;;;5043530;28;20013;-83
2022/08/09 05:48:45;;;;;;;5.22;2.00;;;;;;;;;;5043889;28;20029;-83
2022/08/09 05:51:10;;;;;;;5.20;2.28;;;;;;;;;;5025628;28;20034;-83
2022/08/09 05:53:36;;;;;;;2.47;2.05;;;;;;;;;;5041850;28;20025;-83
2022/08/09 05:56:01;;;;;;;3.15;2.20;;;;;;;;;;5024243;28;20041;-83
2022/08/09 05:58:26;;;;;;;3.50;1.90;;;;;;;;;;5023631;28;20026;-83
2022/08/09 06:00:52;;;;;;;7.40;1.90;;;;;;;;;;5041288;28;20021;-83
2022/08/09 06:03:17;;;;;;;2.20;1.70;;;;;;;;;;5042547;28;20118;-83
2022/08/09 06:05:43;;;;;;;10.07;2.10;;;;;;;;;;5043087;28;20021;-82
2022/08/09 06:08:08;;;;;;;5.18;2.40;;;;;;;;;;5042168;28;20025;-83
2022/08/09 06:10:36;;;;;;;5.05;2.17;;;;;;;;;;5041426;28;20061;-82
2022/08/09 06:13:07;;;;;;;5.43;2.22;;;;;;;;;;5042825;28;20029;-83
2022/08/09 06:15:32;;;;;;;6.10;1.77;;;;;;;;;;5043073;28;20021;-82
2022/08/09 06:17:58;;;;;;;6.15;2.08;;;;;;;;;;5042740;28;20479;-83
2022/08/09 06:20:23;;;;;;;4.25;2.28;;;;;;;;;;5043719;28;20492;-82
2022/08/09 06:22:48;;;;;;;7.25;2.40;;;;;;;;;;5043532;28;20059;-83
2022/08/09 06:25:14;;;;;;;4.00;2.10;;;;;;;;;;5044139;28;20028;-83
2022/08/09 06:27:40;;;;;;;7.53;2.25;;;;;;;;;;5025366;28;20113;-83
2022/08/09 06:30:06;;;;;;;8.85;1.90;;;;;;;;;;5042671;28;20029;-82
2022/08/09 06:32:32;;;;;;;2.30;1.83;;;;;;;;;;5043745;28;20055;-82
2022/08/09 06:34:57;;;;;;;3.67;2.00;;;;;;;;;;5042984;28;20029;-81
2022/08/09 06:37:23;;;;;;;5.78;1.70;;;;;;;;;;5041958;28;20059;-83
2022/08/09 06:39:49;;;;;;;2.33;1.75;;;;;;;;;;5024943;28;20044;-83
2022/08/09 06:42:15;;;;;;;3.63;1.60;;;;;;;;;;5026230;28;20029;-82
2022/08/09 06:44:41;;;;;;;5.50;1.85;;;;;;;;;;5062396;28;20032;-84
2022/08/09 06:47:06;;;;;;;6.03;2.10;;;;;;;;;;5049256;28;20018;-84
2022/08/09 06:49:31;;;;;;;5.97;2.10;;;;;;;;;;5043451;28;20041;-84
2022/08/09 06:51:57;;;;;;;2.42;2.08;;;;;;;;;;5043339;28;20045;-83
2022/08/09 06:54:22;;;;;;;4.93;2.10;;;;;;;;;;5042675;28;20128;-84
2022/08/09 06:56:47;;;;;;;4.45;1.83;;;;;;;;;;5041949;28;20033;-83
2022/08/09 06:59:13;;;;;;;2.15;1.42;;;;;;;;;;5023836;28;20040;-83
2022/08/09 07:01:38;;;;;;;4.88;1.80;;;;;;;;;;5042650;28;20099;-84
2022/08/09 07:04:03;;;;;;;4.63;1.63;;;;;;;;;;5042675;28;20399;-83
2022/08/09 07:06:29;;;;;;;4.65;1.90;;;;;;;;;;5025038;28;20024;-83
2022/08/09 07:08:54;;;;;;;3.75;1.60;;;;;;;;;;5045517;28;20021;-84
2022/08/09 07:11:19;;;;;;;3.42;1.70;;;;;;;;;;5051800;28;20520;-82
2022/08/09 07:13:45;;;;;;;4.95;1.50;;;;;;;;;;5066197;28;20024;-84
2022/08/09 07:16:10;;;;;;;3.45;1.90;;;;;;;;;;5048264;28;20025;-83
2022/08/09 07:18:36;;;;;;;2.63;1.70;;;;;;;;;;5066464;28;20039;-84
2022/08/09 07:21:01;;;;;;;3.28;1.60;;;;;;;;;;5067619;28;20020;-83
2022/08/09 07:23:26;;;;;;;3.25;1.65;;;;;;;;;;5067282;28;20388;-82
2022/08/09 07:25:52;;;;;;;4.13;1.90;;;;;;;;;;5066809;28;20021;-83
2022/08/09 07:28:17;;;;;;;2.22;1.77;;;;;;;;;;5065515;28;20060;-83
2022/08/09 07:30:42;;;;;;;2.03;1.50;;;;;;;;;;5046389;28;20045;-83
2022/08/09 07:33:08;;;;;;;2.13;1.67;;;;;;;;;;5045900;28;20030;-83
2022/08/09 07:35:33;;;;;;;2.22;1.50;;;;;;;;;;5041903;28;20049;-84
2022/08/09 07:37:58;;;;;;;1.70;1.60;;;;;;;;;;5025599;28;20050;-84
2022/08/09 07:40:24;;;;;;;1.70;1.58;;;;;;;;;;5043823;28;20155;-84
2022/08/09 07:42:57;;;;;;;3.03;1.63;;;;;;;;;;5044060;28;20029;-84
2022/08/09 07:45:25;;;;;;;2.33;1.40;;;;;;;;;;5043837;28;20522;-84
2022/08/09 07:47:52;;;;;;;1.77;1.60;;;;;;;;;;5041268;28;20045;-84
2022/08/09 07:50:22;;;;;;;1.92;1.25;;;;;;;;;;5024269;28;20063;-84
2022/08/09 07:52:48;;;;;;;2.05;1.60;;;;;;;;;;5024983;28;20026;-85
2022/08/09 07:55:15;;;;;;;1.63;1.50;;;;;;;;;;5041602;28;20498;-84
2022/08/09 07:57:40;;;;;;;2.97;1.80;;;;;;;;;;5026741;28;20037;-84
2022/08/09 08:00:06;;;;;;;4.43;1.40;;;;;;;;;;5044955;28;20065;-85
2022/08/09 08:02:32;;;;;;;2.67;1.40;;;;;;;;;;5045136;28;20018;-85
2022/08/09 08:04:57;;;;;;;2.40;1.58;;;;;;;;;;5027101;28;20017;-84
2022/08/09 08:07:22;;;;;;;2.88;1.30;;;;;;;;;;5044858;28;20018;-84
2022/08/09 08:09:48;;;;;;;3.85;1.60;;;;;;;;;;5027931;28;20029;-84
2022/08/09 08:12:13;;;;;;;3.03;1.63;;;;;;;;;;5041875;28;20029;-83
2022/08/09 08:14:39;;;;;;;3.13;2.08;;;;;;;;;;5048106;28;20476;-87
2022/08/09 08:17:04;;;;;;;1.60;1.50;;;;;;;;;;5064636;28;20029;-84
2022/08/09 08:19:29;;;;;;;2.88;1.60;;;;;;;;;;5064559;28;20025;-83
2022/08/09 08:21:55;;;;;;;2.00;1.63;;;;;;;;;;5065147;28;20391;-85
2022/08/09 08:24:21;;;;;;;1.50;1.40;;;;;;;;;;5059055;28;20056;-85
2022/08/09 08:26:46;;;;;;;2.85;1.38;;;;;;;;;;5044863;28;20048;-84
2022/08/09 08:29:12;;;;;;;5.95;1.77;;;;;;;;;;5045495;28;20033;-84
2022/08/09 08:31:38;;;;;;;2.72;1.60;;;;;;;;;;5030135;28;20032;-84
2022/08/09 08:34:03;;;;;;;1.40;1.30;;;;;;;;;;5044888;28;20030;-84
2022/08/09 08:36:29;;;;;;;2.00;1.50;;;;;;;;;;5047761;28;20020;-84
2022/08/09 08:38:54;;;;;;;2.97;1.40;;;;;;;;;;5043846;28;20029;-83
2022/08/09 08:41:21;;;;;;;2.70;1.60;;;;;;;;;;5044892;28;20056;-84
2022/08/09 08:43:46;;;;;;;2.22;1.58;;;;;;;;;;5046054;28;20438;-84
2022/08/09 08:46:13;;;;;;;3.55;1.50;;;;;;;;;;5044485;28;20064;-85
2022/08/09 08:48:41;;;;;;;3.25;1.40;;;;;;;;;;5046491;28;20013;-84
2022/08/09 08:51:07;;;;;;;3.78;1.38;;;;;;;;;;5064863;28;20061;-85
2022/08/09 08:53:33;;;;;;;2.15;1.50;;;;;;;;;;5065068;28;20483;-83
2022/08/09 08:55:58;;;;;;;3.65;1.50;;;;;;;;;;5065132;28;20031;-84
2022/08/09 08:58:25;;;;;;;4.75;1.75;;;;;;;;;;5046420;28;20035;-83
2022/08/09 09:00:51;;;;;;;1.58;1.48;;;;;;;;;;5034178;28;20022;-83
2022/08/09 09:03:18;;;;;;;3.83;1.50;;;;;;;;;;5027685;28;20032;-83
2022/08/09 09:05:45;;;;;;;1.70;1.60;;;;;;;;;;5044338;28;20029;-84
2022/08/09 09:08:13;;;;;;;1.48;1.23;;;;;;;;;;5045230;28;20049;-85
2022/08/09 09:10:42;;;;;;;6.63;1.73;;;;;;;;;;5047000;28;20029;-84
2022/08/09 09:13:08;;;;;;;4.85;1.35;;;;;;;;;;5047868;28;20025;-84
2022/08/09 09:15:33;;;;;;;3.80;1.63;;;;;;;;;;5048970;28;20503;-84
2022/08/09 09:17:59;;;;;;;3.88;1.48;;;;;;;;;;5049086;28;20033;-84
2022/08/09 09:20:24;;;;;;;1.90;1.50;;;;;;;;;;5056998;28;20028;-85
2022/08/09 09:22:55;;;;;;;1.33;1.30;;;;;;;;;;5046671;28;20051;-84
2022/08/09 09:25:35;;;;;;;3.00;1.42;;;;;;;;;;5045161;28;20026;-84
2022/08/09 09:28:03;;;;;;;3.20;1.40;;;;;;;;;;5039575;28;20029;-83
2022/08/09 09:30:29;;;;;;;1.40;1.27;;;;;;;;;;5031044;28;20025;-84
2022/08/09 09:33:07;;;;;;;4.47;1.40;;;;;;;;;;5030764;28;20064;-84
2022/08/09 09:35:33;;;;;;;2.75;1.58;;;;;;;;;;5048276;28;20091;-84
2022/08/09 09:37:59;;;;;;;2.30;1.42;;;;;;;;;;5054849;28;20056;-83
2022/08/09 09:40:43;;;;;;;2.53;1.80;;;;;;;;;;5056086;28;20014;-82
2022/08/09 09:43:15;;;;;;;1.42;1.33;;;;;;;;;;5038458;28;20012;-84
2022/08/09 09:45:52;;;;;;;1.80;1.30;;;;;;;;;;5055515;28;20016;-82
2022/08/09 09:48:19;;;;;;;2.15;1.40;;;;;;;;;;5055233;28;20033;-84
2022/08/09 09:50:47;;;;;;;2.00;1.20;;;;;;;;;;5055532;28;20013;-84
2022/08/09 09:53:15;;;;;;;6.80;1.60;;;;;;;;;;5055437;28;20017;-83
2022/08/09 09:56:01;;;;;;;2.05;1.50;;;;;;;;;;5038491;28;20009;-83
2022/08/09 09:58:56;;;;;;;5.38;1.50;;;;;;;;;;5043638;28;20021;-83
2022/08/09 10:01:21;;;;;;;3.20;1.33;;;;;;;;;;5008779;28;20033;-84
2022/08/09 10:03:51;;;;;;;1.67;1.30;;;;;;;;;;5042337;28;20026;-84
2022/08/09 10:06:18;;;;;;;2.97;1.52;;;;;;;;;;5044889;28;20013;-84
2022/08/09 10:08:45;;;;;;;2.95;2.40;;;;;;;;;;5042770;28;20033;-83
2022/08/09 10:11:23;;;;;;;2.08;1.30;;;;;;;;;;5050011;28;20017;-83
2022/08/09 10:13:49;;;;;;;1.70;1.50;;;;;;;;;;5063964;28;20024;-84
2022/08/09 10:16:15;;;;;;;2.58;1.33;;;;;;;;;;5063214;28;20407;-85
2022/08/09 10:18:52;;;;;;;2.50;1.40;;;;;;;;;;5063122;28;20041;-84
2022/08/09 10:21:18;;;;;;;5.53;1.80;;;;;;;;;;5045296;28;20029;-83
2022/08/09 10:23:44;;;;;;;1.70;1.50;;;;;;;;;;5062777;28;20032;-84
2022/08/09 10:26:11;;;;;;;1.35;1.20;;;;;;;;;;5063888;28;20021;-83
2022/08/09 10:28:39;;;;;;;1.42;1.33;;;;;;;;;;5043343;28;20438;-84
2022/08/09 10:31:09;;;;;;;2.50;1.70;;;;;;;;;;5024083;28;20109;-84
2022/08/09 10:33:35;;;;;;;2.97;1.65;;;;;;;;;;5043007;28;20029;-83
2022/08/09 10:36:02;;;;;;;1.42;1.33;;;;;;;;;;5027963;28;20017;-84
2022/08/09 10:38:28;;;;;;;3.28;1.55;;;;;;;;;;5044342;28;20044;-84
2022/08/09 10:40:54;;;;;;;1.67;1.42;;;;;;;;;;5045844;28;20512;-84
2022/08/09 10:43:19;;;;;;;1.35;1.25;;;;;;;;;;5047684;28;20026;-84
2022/08/09 10:45:45;;;;;;;2.20;1.38;;;;;;;;;;5032216;28;20052;-84
2022/08/09 10:48:15;;;;;;;2.38;1.45;;;;;;;;;;5058953;28;20027;-84
2022/08/09 10:51:13;;;;;;;1.73;1.30;;;;;;;;;;5052717;28;20116;-84
2022/08/09 10:54:09;;;;;;;1.60;1.40;;;;;;;;;;5040754;28;20025;-84
2022/08/09 10:56:37;;;;;;;2.97;1.48;;;;;;;;;;5041180;28;20035;-85
2022/08/09 10:59:24;;;;;;;1.50;1.40;;;;;;;;;;5039758;28;20021;-84
2022/08/09 11:01:53;;;;;;;1.45;1.35;;;;;;;;;;5040386;28;20038;-84
2022/08/09 11:04:21;;;;;;;2.85;1.30;;;;;;;;;;5039833;28;20079;-84
2022/08/09 11:07:07;;;;;;;3.00;1.38;;;;;;;;;;5020110;28;20110;-84
2022/08/09 11:09:41;;;;;;;1.52;1.20;;;;;;;;;;5025307;28;20461;-84
2022/08/09 11:12:10;;;;;;;1.45;1.35;;;;;;;;;;5035258;28;20037;-84
2022/08/09 11:14:53;;;;;;;1.67;1.35;;;;;;;;;;5042365;28;20100;-84
2022/08/09 11:17:19;;;;;;;2.45;1.27;;;;;;;;;;5050258;28;20036;-85
2022/08/09 11:20:08;;;;;;;1.55;1.30;;;;;;;;;;5038904;28;20025;-84
2022/08/09 11:22:39;;;;;;;2.80;1.50;;;;;;;;;;5021662;28;20373;-84
2022/08/09 11:25:09;;;;;;;2.03;1.33;;;;;;;;;;5038336;28;20021;-84
2022/08/09 11:27:37;;;;;;;1.55;1.27;;;;;;;;;;5019622;28;20321;-84
2022/08/09 11:30:08;;;;;;;2.75;1.60;;;;;;;;;;5039866;28;20399;-84
2022/08/09 11:32:43;;;;;;;2.38;1.30;;;;;;;;;;5041473;28;20122;-83
2022/08/09 11:35:27;;;;;;;1.27;1.13;;;;;;;;;;5040260;28;20523;-84
2022/08/09 11:37:57;;;;;;;1.90;1.25;;;;;;;;;;5023065;28;20034;-83
2022/08/09 11:40:22;;;;;;;1.48;1.10;;;;;;;;;;5041922;28;20022;-85
2022/08/09 11:42:50;;;;;;;1.48;1.38;;;;;;;;;;5040510;28;20051;-84
2022/08/09 11:45:37;;;;;;;5.40;1.50;;;;;;;;;;5043238;28;20092;-83
2022/08/09 11:48:20;;;;;;;1.75;1.27;;;;;;;;;;5043793;28;20025;-85
2022/08/09 11:50:57;;;;;;;1.15;1.13;;;;;;;;;;5046188;28;20036;-84
2022/08/09 11:53:24;;;;;;;1.55;1.30;;;;;;;;;;5041405;28;20021;-84
2022/08/09 11:55:54;;;;;;;1.58;1.38;;;;;;;;;;5042183;28;20029;-85
2022/08/09 11:58:19;;;;;;;1.65;1.42;;;;;;;;;;5038450;28;20017;-84
2022/08/09 12:00:48;;;;;;;2.65;1.40;;;;;;;;;;5037560;28;20086;-85
2022/08/09 12:03:18;;;;;;;1.48;1.25;;;;;;;;;;5020270;28;20031;-85
2022/08/09 12:05:45;;;;;;;1.50;1.40;;;;;;;;;;5038165;28;20040;-86
2022/08/09 12:08:13;;;;;;;2.13;1.33;;;;;;;;;;5039245;28;20036;-85
2022/08/09 12:10:43;;;;;;;3.20;1.50;;;;;;;;;;5041172;28;20033;-84
2022/08/09 12:13:09;;;;;;;2.65;2.45;;;;;;;;;;5047604;28;20400;-84
2022/08/09 12:15:35;;;;;;;4.47;1.30;;;;;;;;;;5037390;28;20476;-85
2022/08/09 12:18:00;;;;;;;1.42;1.20;;;;;;;;;;5037666;28;20032;-84
2022/08/09 12:20:26;;;;;;;1.55;1.40;;;;;;;;;;5020731;28;20040;-84
2022/08/09 12:23:02;;;;;;;1.63;1.27;;;;;;;;;;5020025;28;20025;-83
2022/08/09 12:25:32;;;;;;;2.28;1.30;;;;;;;;;;5037831;28;20024;-82
2022/08/09 12:28:09;;;;;;;1.23;1.23;;;;;;;;;;5019077;28;20033;-83
2022/08/09 12:30:34;;;;;;;3.33;1.60;;;;;;;;;;5036868;28;20032;-83
2022/08/09 12:33:01;;;;;;;1.65;1.02;;;;;;;;;;5037731;28;20057;-84
2022/08/09 12:35:26;;;;;;;1.85;1.20;;;;;;;;;;5037072;28;20036;-83
2022/08/09 12:37:52;;;;;;;1.25;1.15;;;;;;;;;;5037135;28;20018;-84
2022/08/09 12:40:20;;;;;;;3.80;1.30;;;;;;;;;;5036207;28;20025;-84
2022/08/09 12:42:46;;;;;;;2.25;1.42;;;;;;;;;;5037897;28;20021;-84
2022/08/09 12:45:12;;;;;;;1.17;1.10;;;;;;;;;;5038141;28;20024;-84
2022/08/09 12:47:37;;;;;;;2.03;1.20;;;;;;;;;;5036604;28;20033;-84
2022/08/09 12:50:15;;;;;;;3.85;1.30;;;;;;;;;;5038121;28;20033;-84
2022/08/09 12:52:42;;;;;;;1.52;1.25;;;;;;;;;;5038019;28;20056;-83
2022/08/09 12:55:09;;;;;;;1.58;1.33;;;;;;;;;;5028471;28;20033;-85
2022/08/09 12:57:39;;;;;;;3.08;1.40;;;;;;;;;;5040294;28;20087;-85
2022/08/09 13:00:11;;;;;;;1.92;1.30;;;;;;;;;;5036352;28;20060;-85
2022/08/09 13:02:48;;;;;;;1.30;1.17;;;;;;;;;;5036972;28;20075;-84
2022/08/09 13:05:14;;;;;;;1.92;1.08;;;;;;;;;;5038121;28;20022;-84
2022/08/09 13:07:39;;;;;;;2.38;1.38;;;;;;;;;;5018685;28;20029;-84
2022/08/09 13:10:05;;;;;;;3.40;1.40;;;;;;;;;;5036684;28;20047;-85
2022/08/09 13:12:31;;;;;;;1.90;1.55;;;;;;;;;;5037645;28;20392;-86
2022/08/09 13:15:07;;;;;;;2.03;1.20;;;;;;;;;;5037037;28;20104;-83
2022/08/09 13:17:32;;;;;;;1.45;1.30;;;;;;;;;;5042108;28;20032;-84
2022/08/09 13:19:57;;;;;;;2.75;1.20;;;;;;;;;;5036532;28;20022;-84
2022/08/09 13:22:25;;;;;;;2.28;1.20;;;;;;;;;;5036465;28;20048;-83
2022/08/09 13:24:53;;;;;;;3.78;1.40;;;;;;;;;;5037110;28;20018;-84
2022/08/09 13:27:39;;;;;;;3.45;1.63;;;;;;;;;;5036070;28;20195;-84
2022/08/09 13:30:16;;;;;;;2.03;1.25;;;;;;;;;;5048304;28;20017;-82
2022/08/09 13:32:50;;;;;;;1.15;1.08;;;;;;;;;;5054337;28;20032;-82
2022/08/09 13:35:18;;;;;;;1.88;1.00;;;;;;;;;;5056395;28;20104;-81
2022/08/09 13:37:44;;;;;;;1.20;1.10;;;;;;;;;;5039119;28;20013;-81
2022/08/09 13:40:12;;;;;;;1.33;1.23;;;;;;;;;;5055765;28;20017;-81
2022/08/09 13:42:38;;;;;;;1.20;1.10;;;;;;;;;;5055769;28;20107;-81
2022/08/09 13:45:05;;;;;;;1.65;1.27;;;;;;;;;;5052555;28;20025;-85
2022/08/09 13:47:33;;;;;;;3.40;1.48;;;;;;;;;;5021783;28;20032;-85
2022/08/09 13:50:04;;;;;;;2.03;1.25;;;;;;;;;;5037224;28;20410;-84
2022/08/09 13:52:30;;;;;;;2.35;1.10;;;;;;;;;;5037842;28;20018;-84
2022/08/09 13:54:56;;;;;;;1.20;1.10;;;;;;;;;;5029569;28;20575;-84
2022/08/09 13:57:22;;;;;;;1.27;1.10;;;;;;;;;;5037448;28;20021;-85
2022/08/09 13:59:49;;;;;;;1.00;1.00;;;;;;;;;;5018576;28;20124;-85
2022/08/09 14:02:14;;;;;;;1.13;1.13;;;;;;;;;;5037454;28;20025;-84
2022/08/09 14:04:40;;;;;;;1.95;1.30;;;;;;;;;;5036082;28;20120;-84
2022/08/09 14:07:05;;;;;;;1.20;1.10;;;;;;;;;;5018546;28;20022;-84
2022/08/09 14:09:30;;;;;;;2.20;1.17;;;;;;;;;;5038692;28;20092;-84
2022/08/09 14:11:58;;;;;;;1.15;1.05;;;;;;;;;;5047003;28;20024;-84
2022/08/09 14:14:24;;;;;;;1.10;1.02;;;;;;;;;;5057163;28;20519;-86
2022/08/09 14:16:49;;;;;;;1.50;1.27;;;;;;;;;;5044046;28;20029;-84
2022/08/09 14:19:16;;;;;;;1.00;1.00;;;;;;;;;;5036316;28;20076;-84
2022/08/09 14:21:42;;;;;;;3.70;1.52;;;;;;;;;;5036265;28;20031;-83
2022/08/09 14:24:09;;;;;;;1.35;1.00;;;;;;;;;;5038335;28;20084;-84
2022/08/09 14:26:35;;;;;;;1.27;1.17;;;;;;;;;;5039627;28;20025;-83
2022/08/09 14:29:05;;;;;;;1.33;1.23;;;;;;;;;;5041112;28;20020;-84
2022/08/09 14:31:30;;;;;;;1.52;0.98;;;;;;;;;;5039068;28;20048;-83
2022/08/09 14:33:56;;;;;;;2.05;1.20;;;;;;;;;;5039086;28;20396;-82
2022/08/09 14:36:21;;;;;;;1.00;1.00;;;;;;;;;;5050442;28;20105;-82
2022/08/09 14:38:47;;;;;;;1.65;1.08;;;;;;;;;;5022721;28;20028;-81
2022/08/09 14:41:13;;;;;;;1.00;1.00;;;;;;;;;;5039078;28;20029;-85
2022/08/09 14:43:38;;;;;;;2.08;1.23;;;;;;;;;;5039956;28;20404;-85
2022/08/09 14:46:03;;;;;;;2.83;1.23;;;;;;;;;;5039798;28;20029;-83
2022/08/09 14:48:29;;;;;;;0.80;0.80;;;;;;;;;;5037388;28;20025;-83